sensor_id;sensor_type;location;lat;lon;timestamp;P1;durP1;ratioP1;P2;durP2;ratioP2
77838;SDS011;67034;43.226;27.932;2023-06-14T00:01:54;3.22;;;2.45;;
77838;SDS011;67034;43.226;27.932;2023-06-14T00:04:20;4.22;;;2.83;;
77838;SDS011;67034;43.226;27.932;2023-06-14T00:06:48;3.38;;;2.58;;
77838;SDS011;67034;43.226;27.932;2023-06-14T00:09:15;5.30;;;2.47;;
77838;SDS011;67034;43.226;27.932;2023-06-14T00:11:42;3.78;;;2.70;;
77838;SDS011;67034;43.226;27.932;2023-06-14T00:14:08;4.07;;;2.65;;
77838;SDS011;67034;43.226;27.932;2023-06-14T00:16:34;5.22;;;2.70;;
77838;SDS011;67034;43.226;27.932;2023-06-14T00:19:02;3.30;;;2.55;;
77838;SDS011;67034;43.226;27.932;2023-06-14T00:21:31;4.00;;;2.88;;
77838;SDS011;67034;43.226;27.932;2023-06-14T00:23:58;3.92;;;2.83;;
77838;SDS011;67034;43.226;27.932;2023-06-14T00:26:24;4.35;;;2.88;;
77838;SDS011;67034;43.226;27.932;2023-06-14T00:28:51;4.00;;;2.83;;
77838;SDS011;67034;43.226;27.932;2023-06-14T00:31:17;3.33;;;2.58;;
77838;SDS011;67034;43.226;27.932;2023-06-14T00:33:42;4.38;;;2.80;;
77838;SDS011;67034;43.226;27.932;2023-06-14T00:36:08;4.90;;;3.20;;
77838;SDS011;67034;43.226;27.932;2023-06-14T00:38:34;4.45;;;2.78;;
77838;SDS011;67034;43.226;27.932;2023-06-14T00:41:01;4.32;;;3.20;;
77838;SDS011;67034;43.226;27.932;2023-06-14T00:43:27;4.88;;;2.67;;
77838;SDS011;67034;43.226;27.932;2023-06-14T00:45:53;4.88;;;2.75;;
77838;SDS011;67034;43.226;27.932;2023-06-14T00:48:18;4.13;;;3.00;;
77838;SDS011;67034;43.226;27.932;2023-06-14T00:50:45;3.42;;;2.90;;
77838;SDS011;67034;43.226;27.932;2023-06-14T00:53:11;5.10;;;2.95;;
77838;SDS011;67034;43.226;27.932;2023-06-14T00:55:37;5.28;;;3.08;;
77838;SDS011;67034;43.226;27.932;2023-06-14T00:58:04;3.78;;;3.08;;
77838;SDS011;67034;43.226;27.932;2023-06-14T01:00:31;6.45;;;3.28;;
77838;SDS011;67034;43.226;27.932;2023-06-14T01:02:56;4.65;;;2.92;;
77838;SDS011;67034;43.226;27.932;2023-06-14T01:05:22;4.65;;;2.78;;
77838;SDS011;67034;43.226;27.932;2023-06-14T01:07:54;6.78;;;3.30;;
77838;SDS011;67034;43.226;27.932;2023-06-14T01:10:32;5.03;;;3.17;;
77838;SDS011;67034;43.226;27.932;2023-06-14T01:13:07;4.50;;;3.10;;
77838;SDS011;67034;43.226;27.932;2023-06-14T01:15:38;4.75;;;2.88;;
77838;SDS011;67034;43.226;27.932;2023-06-14T01:18:04;3.90;;;3.08;;
77838;SDS011;67034;43.226;27.932;2023-06-14T01:20:31;3.60;;;2.50;;
77838;SDS011;67034;43.226;27.932;2023-06-14T01:22:59;4.35;;;2.80;;
77838;SDS011;67034;43.226;27.932;2023-06-14T01:25:25;3.55;;;2.80;;
77838;SDS011;67034;43.226;27.932;2023-06-14T01:27:53;5.50;;;3.10;;
77838;SDS011;67034;43.226;27.932;2023-06-14T01:30:20;5.43;;;3.22;;
77838;SDS011;67034;43.226;27.932;2023-06-14T01:32:48;4.03;;;3.20;;
77838;SDS011;67034;43.226;27.932;2023-06-14T01:35:15;4.53;;;3.05;;
77838;SDS011;67034;43.226;27.932;2023-06-14T01:37:41;7.72;;;3.53;;
77838;SDS011;67034;43.226;27.932;2023-06-14T01:40:10;4.55;;;3.42;;
77838;SDS011;67034;43.226;27.932;2023-06-14T01:42:37;5.22;;;2.95;;
77838;SDS011;67034;43.226;27.932;2023-06-14T01:45:04;6.45;;;3.60;;
77838;SDS011;67034;43.226;27.932;2023-06-14T01:47:32;4.07;;;3.17;;
77838;SDS011;67034;43.226;27.932;2023-06-14T01:49:59;3.95;;;3.33;;
77838;SDS011;67034;43.226;27.932;2023-06-14T01:52:25;4.85;;;3.03;;
77838;SDS011;67034;43.226;27.932;2023-06-14T01:54:50;4.82;;;3.60;;
77838;SDS011;67034;43.226;27.932;2023-06-14T01:57:18;5.35;;;3.42;;
77838;SDS011;67034;43.226;27.932;2023-06-14T01:59:44;5.22;;;3.42;;
77838;SDS011;67034;43.226;27.932;2023-06-14T02:02:13;4.95;;;3.40;;
77838;SDS011;67034;43.226;27.932;2023-06-14T02:04:39;6.75;;;3.13;;
77838;SDS011;67034;43.226;27.932;2023-06-14T02:07:05;3.70;;;3.00;;
77838;SDS011;67034;43.226;27.932;2023-06-14T02:09:30;5.35;;;3.05;;
77838;SDS011;67034;43.226;27.932;2023-06-14T02:11:56;5.15;;;3.72;;
77838;SDS011;67034;43.226;27.932;2023-06-14T02:14:23;4.35;;;3.15;;
77838;SDS011;67034;43.226;27.932;2023-06-14T02:16:49;4.82;;;3.35;;
77838;SDS011;67034;43.226;27.932;2023-06-14T02:19:15;4.63;;;3.65;;
77838;SDS011;67034;43.226;27.932;2023-06-14T02:21:41;5.85;;;3.88;;
77838;SDS011;67034;43.226;27.932;2023-06-14T02:24:07;5.00;;;3.70;;
77838;SDS011;67034;43.226;27.932;2023-06-14T02:26:32;4.57;;;3.60;;
77838;SDS011;67034;43.226;27.932;2023-06-14T02:28:58;5.43;;;3.42;;
77838;SDS011;67034;43.226;27.932;2023-06-14T02:31:26;5.00;;;3.45;;
77838;SDS011;67034;43.226;27.932;2023-06-14T02:33:52;5.75;;;4.00;;
77838;SDS011;67034;43.226;27.932;2023-06-14T02:36:18;5.13;;;3.80;;
77838;SDS011;67034;43.226;27.932;2023-06-14T02:38:44;6.55;;;3.80;;
77838;SDS011;67034;43.226;27.932;2023-06-14T02:41:10;5.70;;;4.13;;
77838;SDS011;67034;43.226;27.932;2023-06-14T02:43:36;6.47;;;4.00;;
77838;SDS011;67034;43.226;27.932;2023-06-14T02:46:01;7.53;;;4.13;;
77838;SDS011;67034;43.226;27.932;2023-06-14T02:48:29;5.20;;;3.85;;
77838;SDS011;67034;43.226;27.932;2023-06-14T02:50:55;5.60;;;3.67;;
77838;SDS011;67034;43.226;27.932;2023-06-14T02:53:22;6.63;;;4.05;;
77838;SDS011;67034;43.226;27.932;2023-06-14T02:55:48;5.95;;;3.97;;
77838;SDS011;67034;43.226;27.932;2023-06-14T02:58:14;6.70;;;4.63;;
77838;SDS011;67034;43.226;27.932;2023-06-14T03:00:41;7.43;;;4.20;;
77838;SDS011;67034;43.226;27.932;2023-06-14T03:03:07;9.32;;;4.78;;
77838;SDS011;67034;43.226;27.932;2023-06-14T03:05:43;6.43;;;3.92;;
77838;SDS011;67034;43.226;27.932;2023-06-14T03:08:14;4.72;;;3.60;;
77838;SDS011;67034;43.226;27.932;2023-06-14T03:10:42;7.38;;;4.25;;
77838;SDS011;67034;43.226;27.932;2023-06-14T03:13:08;5.32;;;4.25;;
77838;SDS011;67034;43.226;27.932;2023-06-14T03:15:34;7.43;;;4.13;;
77838;SDS011;67034;43.226;27.932;2023-06-14T03:18:00;5.45;;;4.40;;
77838;SDS011;67034;43.226;27.932;2023-06-14T03:20:26;5.47;;;4.20;;
77838;SDS011;67034;43.226;27.932;2023-06-14T03:22:55;9.30;;;4.50;;
77838;SDS011;67034;43.226;27.932;2023-06-14T03:25:21;6.25;;;4.50;;
77838;SDS011;67034;43.226;27.932;2023-06-14T03:27:47;5.88;;;4.38;;
77838;SDS011;67034;43.226;27.932;2023-06-14T03:30:13;7.43;;;4.90;;
77838;SDS011;67034;43.226;27.932;2023-06-14T03:32:39;6.03;;;4.40;;
77838;SDS011;67034;43.226;27.932;2023-06-14T03:35:05;5.80;;;4.28;;
77838;SDS011;67034;43.226;27.932;2023-06-14T03:37:31;10.85;;;5.53;;
77838;SDS011;67034;43.226;27.932;2023-06-14T03:39:58;7.65;;;5.25;;
77838;SDS011;67034;43.226;27.932;2023-06-14T03:42:24;8.68;;;5.10;;
77838;SDS011;67034;43.226;27.932;2023-06-14T03:44:50;7.32;;;4.97;;
77838;SDS011;67034;43.226;27.932;2023-06-14T03:47:15;6.80;;;4.95;;
77838;SDS011;67034;43.226;27.932;2023-06-14T03:49:42;6.53;;;4.45;;
77838;SDS011;67034;43.226;27.932;2023-06-14T03:52:07;6.97;;;4.88;;
77838;SDS011;67034;43.226;27.932;2023-06-14T03:54:33;7.05;;;4.90;;
77838;SDS011;67034;43.226;27.932;2023-06-14T03:57:00;11.13;;;5.20;;
77838;SDS011;67034;43.226;27.932;2023-06-14T03:59:26;7.55;;;5.28;;
77838;SDS011;67034;43.226;27.932;2023-06-14T04:01:53;6.15;;;4.95;;
77838;SDS011;67034;43.226;27.932;2023-06-14T04:04:19;8.50;;;5.60;;
77838;SDS011;67034;43.226;27.932;2023-06-14T04:06:46;6.57;;;5.50;;
77838;SDS011;67034;43.226;27.932;2023-06-14T04:09:13;8.18;;;5.35;;
77838;SDS011;67034;43.226;27.932;2023-06-14T04:11:39;8.32;;;5.45;;
77838;SDS011;67034;43.226;27.932;2023-06-14T04:14:06;9.15;;;4.93;;
77838;SDS011;67034;43.226;27.932;2023-06-14T04:16:32;9.68;;;5.85;;
77838;SDS011;67034;43.226;27.932;2023-06-14T04:18:57;7.30;;;4.90;;
77838;SDS011;67034;43.226;27.932;2023-06-14T04:21:23;11.23;;;5.38;;
77838;SDS011;67034;43.226;27.932;2023-06-14T04:23:49;7.30;;;5.35;;
77838;SDS011;67034;43.226;27.932;2023-06-14T04:26:18;9.23;;;6.00;;
77838;SDS011;67034;43.226;27.932;2023-06-14T04:28:45;6.18;;;4.97;;
77838;SDS011;67034;43.226;27.932;2023-06-14T04:31:13;7.82;;;5.47;;
77838;SDS011;67034;43.226;27.932;2023-06-14T04:33:39;9.00;;;5.22;;
77838;SDS011;67034;43.226;27.932;2023-06-14T04:36:08;8.98;;;5.90;;
77838;SDS011;67034;43.226;27.932;2023-06-14T04:38:34;8.95;;;5.43;;
77838;SDS011;67034;43.226;27.932;2023-06-14T04:41:00;6.70;;;5.18;;
77838;SDS011;67034;43.226;27.932;2023-06-14T04:43:27;7.25;;;5.63;;
77838;SDS011;67034;43.226;27.932;2023-06-14T04:45:53;7.35;;;5.20;;
77838;SDS011;67034;43.226;27.932;2023-06-14T04:48:22;9.05;;;5.50;;
77838;SDS011;67034;43.226;27.932;2023-06-14T04:50:48;9.30;;;5.40;;
77838;SDS011;67034;43.226;27.932;2023-06-14T04:53:18;6.75;;;4.72;;
77838;SDS011;67034;43.226;27.932;2023-06-14T04:55:46;13.18;;;5.22;;
77838;SDS011;67034;43.226;27.932;2023-06-14T04:58:13;8.90;;;5.95;;
77838;SDS011;67034;43.226;27.932;2023-06-14T05:00:39;6.15;;;4.97;;
77838;SDS011;67034;43.226;27.932;2023-06-14T05:03:07;8.63;;;5.32;;
77838;SDS011;67034;43.226;27.932;2023-06-14T05:05:35;8.18;;;5.53;;
77838;SDS011;67034;43.226;27.932;2023-06-14T05:08:00;7.28;;;5.68;;
77838;SDS011;67034;43.226;27.932;2023-06-14T05:10:26;6.25;;;5.03;;
77838;SDS011;67034;43.226;27.932;2023-06-14T05:12:52;8.90;;;5.57;;
77838;SDS011;67034;43.226;27.932;2023-06-14T05:15:18;6.25;;;4.95;;
77838;SDS011;67034;43.226;27.932;2023-06-14T05:17:44;8.00;;;5.13;;
77838;SDS011;67034;43.226;27.932;2023-06-14T05:20:13;7.40;;;5.50;;
77838;SDS011;67034;43.226;27.932;2023-06-14T05:22:40;6.43;;;4.78;;
77838;SDS011;67034;43.226;27.932;2023-06-14T05:25:06;7.78;;;5.95;;
77838;SDS011;67034;43.226;27.932;2023-06-14T05:27:32;6.32;;;5.13;;
77838;SDS011;67034;43.226;27.932;2023-06-14T05:30:00;6.93;;;5.10;;
77838;SDS011;67034;43.226;27.932;2023-06-14T05:32:26;6.72;;;5.13;;
77838;SDS011;67034;43.226;27.932;2023-06-14T05:34:52;6.43;;;5.03;;
77838;SDS011;67034;43.226;27.932;2023-06-14T05:37:18;6.43;;;5.03;;
77838;SDS011;67034;43.226;27.932;2023-06-14T05:39:45;8.88;;;5.05;;
77838;SDS011;67034;43.226;27.932;2023-06-14T05:42:11;8.75;;;5.32;;
77838;SDS011;67034;43.226;27.932;2023-06-14T05:44:36;6.22;;;5.28;;
77838;SDS011;67034;43.226;27.932;2023-06-14T05:47:02;7.75;;;5.25;;
77838;SDS011;67034;43.226;27.932;2023-06-14T05:49:28;12.05;;;5.50;;
77838;SDS011;67034;43.226;27.932;2023-06-14T05:51:54;7.82;;;4.90;;
77838;SDS011;67034;43.226;27.932;2023-06-14T05:54:19;6.32;;;4.72;;
77838;SDS011;67034;43.226;27.932;2023-06-14T05:56:47;5.55;;;4.60;;
77838;SDS011;67034;43.226;27.932;2023-06-14T05:59:12;5.75;;;4.90;;
77838;SDS011;67034;43.226;27.932;2023-06-14T06:01:38;6.88;;;4.90;;
77838;SDS011;67034;43.226;27.932;2023-06-14T06:04:05;7.28;;;4.90;;
77838;SDS011;67034;43.226;27.932;2023-06-14T06:06:31;6.72;;;5.03;;
77838;SDS011;67034;43.226;27.932;2023-06-14T06:08:57;6.40;;;4.50;;
77838;SDS011;67034;43.226;27.932;2023-06-14T06:11:23;5.63;;;4.40;;
77838;SDS011;67034;43.226;27.932;2023-06-14T06:13:50;5.35;;;4.18;;
77838;SDS011;67034;43.226;27.932;2023-06-14T06:16:16;7.13;;;4.45;;
77838;SDS011;67034;43.226;27.932;2023-06-14T06:18:42;4.85;;;4.05;;
77838;SDS011;67034;43.226;27.932;2023-06-14T06:21:08;5.35;;;4.20;;
77838;SDS011;67034;43.226;27.932;2023-06-14T06:23:33;4.68;;;3.67;;
77838;SDS011;67034;43.226;27.932;2023-06-14T06:25:59;4.75;;;3.58;;
77838;SDS011;67034;43.226;27.932;2023-06-14T06:28:25;6.75;;;3.50;;
77838;SDS011;67034;43.226;27.932;2023-06-14T06:30:52;4.95;;;3.63;;
77838;SDS011;67034;43.226;27.932;2023-06-14T06:33:18;6.20;;;3.70;;
77838;SDS011;67034;43.226;27.932;2023-06-14T06:35:45;7.00;;;3.10;;
77838;SDS011;67034;43.226;27.932;2023-06-14T06:38:10;5.20;;;3.25;;
77838;SDS011;67034;43.226;27.932;2023-06-14T06:40:36;4.60;;;3.53;;
77838;SDS011;67034;43.226;27.932;2023-06-14T06:43:02;6.25;;;3.88;;
77838;SDS011;67034;43.226;27.932;2023-06-14T06:45:28;4.85;;;2.70;;
77838;SDS011;67034;43.226;27.932;2023-06-14T06:47:55;4.20;;;3.10;;
77838;SDS011;67034;43.226;27.932;2023-06-14T06:50:21;3.65;;;2.50;;
77838;SDS011;67034;43.226;27.932;2023-06-14T06:52:50;3.63;;;2.78;;
77838;SDS011;67034;43.226;27.932;2023-06-14T06:55:16;5.75;;;3.13;;
77838;SDS011;67034;43.226;27.932;2023-06-14T06:57:43;3.35;;;3.05;;
77838;SDS011;67034;43.226;27.932;2023-06-14T07:00:10;3.92;;;3.20;;
77838;SDS011;67034;43.226;27.932;2023-06-14T07:02:37;4.70;;;3.40;;
77838;SDS011;67034;43.226;27.932;2023-06-14T07:05:05;4.15;;;3.38;;
77838;SDS011;67034;43.226;27.932;2023-06-14T07:07:31;5.65;;;3.75;;
77838;SDS011;67034;43.226;27.932;2023-06-14T07:09:57;3.83;;;3.40;;
77838;SDS011;67034;43.226;27.932;2023-06-14T07:12:22;4.35;;;3.35;;
77838;SDS011;67034;43.226;27.932;2023-06-14T07:14:48;4.45;;;3.10;;
77838;SDS011;67034;43.226;27.932;2023-06-14T07:17:14;4.60;;;3.08;;
77838;SDS011;67034;43.226;27.932;2023-06-14T07:19:40;4.63;;;3.10;;
77838;SDS011;67034;43.226;27.932;2023-06-14T07:22:07;3.60;;;3.00;;
77838;SDS011;67034;43.226;27.932;2023-06-14T07:24:33;4.57;;;2.90;;
77838;SDS011;67034;43.226;27.932;2023-06-14T07:27:01;5.55;;;3.05;;
77838;SDS011;67034;43.226;27.932;2023-06-14T07:29:28;3.58;;;2.92;;
77838;SDS011;67034;43.226;27.932;2023-06-14T07:31:54;5.00;;;2.97;;
77838;SDS011;67034;43.226;27.932;2023-06-14T07:34:20;4.78;;;3.58;;
77838;SDS011;67034;43.226;27.932;2023-06-14T07:36:45;4.00;;;3.05;;
77838;SDS011;67034;43.226;27.932;2023-06-14T07:39:14;4.47;;;3.05;;
77838;SDS011;67034;43.226;27.932;2023-06-14T07:41:40;9.07;;;5.35;;
77838;SDS011;67034;43.226;27.932;2023-06-14T07:44:06;5.95;;;3.25;;
77838;SDS011;67034;43.226;27.932;2023-06-14T07:46:31;3.60;;;2.70;;
77838;SDS011;67034;43.226;27.932;2023-06-14T07:48:57;5.80;;;2.85;;
77838;SDS011;67034;43.226;27.932;2023-06-14T07:51:23;9.82;;;4.05;;
77838;SDS011;67034;43.226;27.932;2023-06-14T07:53:49;5.05;;;2.90;;
77838;SDS011;67034;43.226;27.932;2023-06-14T07:56:16;7.40;;;3.05;;
77838;SDS011;67034;43.226;27.932;2023-06-14T07:58:42;6.28;;;3.22;;
77838;SDS011;67034;43.226;27.932;2023-06-14T08:01:08;3.05;;;2.75;;
77838;SDS011;67034;43.226;27.932;2023-06-14T08:03:34;3.75;;;2.67;;
77838;SDS011;67034;43.226;27.932;2023-06-14T08:06:00;4.22;;;2.80;;
77838;SDS011;67034;43.226;27.932;2023-06-14T08:08:26;3.97;;;3.15;;
77838;SDS011;67034;43.226;27.932;2023-06-14T08:10:52;4.72;;;3.00;;
77838;SDS011;67034;43.226;27.932;2023-06-14T08:13:19;3.30;;;2.70;;
77838;SDS011;67034;43.226;27.932;2023-06-14T08:15:45;4.00;;;2.83;;
77838;SDS011;67034;43.226;27.932;2023-06-14T08:18:11;3.58;;;2.80;;
77838;SDS011;67034;43.226;27.932;2023-06-14T08:20:37;3.25;;;2.65;;
77838;SDS011;67034;43.226;27.932;2023-06-14T08:23:03;3.63;;;2.80;;
77838;SDS011;67034;43.226;27.932;2023-06-14T08:25:29;3.95;;;2.50;;
77838;SDS011;67034;43.226;27.932;2023-06-14T08:27:55;3.58;;;2.80;;
77838;SDS011;67034;43.226;27.932;2023-06-14T08:30:22;4.65;;;2.88;;
77838;SDS011;67034;43.226;27.932;2023-06-14T08:32:48;3.28;;;2.80;;
77838;SDS011;67034;43.226;27.932;2023-06-14T08:35:15;4.63;;;3.05;;
77838;SDS011;67034;43.226;27.932;2023-06-14T08:37:41;3.35;;;2.90;;
77838;SDS011;67034;43.226;27.932;2023-06-14T08:40:11;3.33;;;2.88;;
77838;SDS011;67034;43.226;27.932;2023-06-14T08:42:44;4.70;;;3.30;;
77838;SDS011;67034;43.226;27.932;2023-06-14T08:45:11;3.38;;;2.63;;
77838;SDS011;67034;43.226;27.932;2023-06-14T08:47:38;4.35;;;2.88;;
77838;SDS011;67034;43.226;27.932;2023-06-14T08:50:05;3.83;;;2.70;;
77838;SDS011;67034;43.226;27.932;2023-06-14T08:52:35;5.35;;;2.78;;
77838;SDS011;67034;43.226;27.932;2023-06-14T08:55:11;4.60;;;2.95;;
77838;SDS011;67034;43.226;27.932;2023-06-14T08:57:37;3.33;;;2.80;;
77838;SDS011;67034;43.226;27.932;2023-06-14T09:00:05;4.10;;;3.00;;
77838;SDS011;67034;43.226;27.932;2023-06-14T09:02:39;5.05;;;3.15;;
77838;SDS011;67034;43.226;27.932;2023-06-14T09:05:11;7.20;;;3.40;;
77838;SDS011;67034;43.226;27.932;2023-06-14T09:07:43;4.00;;;3.20;;
77838;SDS011;67034;43.226;27.932;2023-06-14T09:10:09;3.75;;;3.00;;
77838;SDS011;67034;43.226;27.932;2023-06-14T09:12:37;4.07;;;3.08;;
77838;SDS011;67034;43.226;27.932;2023-06-14T09:15:04;4.20;;;3.00;;
77838;SDS011;67034;43.226;27.932;2023-06-14T09:17:33;5.43;;;3.03;;
77838;SDS011;67034;43.226;27.932;2023-06-14T09:20:01;3.92;;;2.80;;
77838;SDS011;67034;43.226;27.932;2023-06-14T09:22:30;6.03;;;2.92;;
77838;SDS011;67034;43.226;27.932;2023-06-14T09:24:56;5.53;;;3.00;;
77838;SDS011;67034;43.226;27.932;2023-06-14T09:27:22;6.13;;;3.63;;
77838;SDS011;67034;43.226;27.932;2023-06-14T09:29:48;8.98;;;4.50;;
77838;SDS011;67034;43.226;27.932;2023-06-14T09:32:14;7.45;;;3.60;;
77838;SDS011;67034;43.226;27.932;2023-06-14T09:34:40;6.50;;;3.65;;
77838;SDS011;67034;43.226;27.932;2023-06-14T09:37:07;5.82;;;3.60;;
77838;SDS011;67034;43.226;27.932;2023-06-14T09:39:33;5.65;;;3.38;;
77838;SDS011;67034;43.226;27.932;2023-06-14T09:41:59;8.02;;;3.70;;
77838;SDS011;67034;43.226;27.932;2023-06-14T09:44:25;77.88;;;9.98;;
77838;SDS011;67034;43.226;27.932;2023-06-14T09:46:53;4.88;;;3.60;;
77838;SDS011;67034;43.226;27.932;2023-06-14T09:49:21;7.72;;;4.40;;
77838;SDS011;67034;43.226;27.932;2023-06-14T09:51:48;10.38;;;5.03;;
77838;SDS011;67034;43.226;27.932;2023-06-14T09:54:20;8.45;;;4.70;;
77838;SDS011;67034;43.226;27.932;2023-06-14T09:56:48;4.03;;;3.45;;
77838;SDS011;67034;43.226;27.932;2023-06-14T09:59:19;6.15;;;3.92;;
77838;SDS011;67034;43.226;27.932;2023-06-14T10:01:46;8.25;;;4.13;;
77838;SDS011;67034;43.226;27.932;2023-06-14T10:04:13;6.22;;;3.95;;
77838;SDS011;67034;43.226;27.932;2023-06-14T10:06:45;7.63;;;4.32;;
77838;SDS011;67034;43.226;27.932;2023-06-14T10:09:11;9.10;;;5.00;;
77838;SDS011;67034;43.226;27.932;2023-06-14T10:11:39;8.00;;;4.57;;
77838;SDS011;67034;43.226;27.932;2023-06-14T10:16:37;6.30;;;3.88;;
77838;SDS011;67034;43.226;27.932;2023-06-14T10:19:19;7.70;;;4.40;;
77838;SDS011;67034;43.226;27.932;2023-06-14T10:21:51;6.60;;;3.40;;
77838;SDS011;67034;43.226;27.932;2023-06-14T10:24:25;5.70;;;3.72;;
77838;SDS011;67034;43.226;27.932;2023-06-14T10:26:58;5.82;;;3.90;;
77838;SDS011;67034;43.226;27.932;2023-06-14T10:29:27;17.75;;;4.78;;
77838;SDS011;67034;43.226;27.932;2023-06-14T10:32:02;21.58;;;5.57;;
77838;SDS011;67034;43.226;27.932;2023-06-14T10:34:29;9.25;;;4.00;;
77838;SDS011;67034;43.226;27.932;2023-06-14T10:37:02;12.32;;;4.80;;
77838;SDS011;67034;43.226;27.932;2023-06-14T10:39:29;12.10;;;4.63;;
77838;SDS011;67034;43.226;27.932;2023-06-14T10:41:55;6.00;;;4.40;;
77838;SDS011;67034;43.226;27.932;2023-06-14T10:47:23;7.75;;;4.80;;
77838;SDS011;67034;43.226;27.932;2023-06-14T10:49:50;6.35;;;3.80;;
77838;SDS011;67034;43.226;27.932;2023-06-14T10:52:21;12.60;;;5.00;;
77838;SDS011;67034;43.226;27.932;2023-06-14T10:55:03;5.90;;;4.20;;
77838;SDS011;67034;43.226;27.932;2023-06-14T10:57:40;4.53;;;4.10;;
77838;SDS011;67034;43.226;27.932;2023-06-14T11:00:07;8.77;;;3.75;;
77838;SDS011;67034;43.226;27.932;2023-06-14T11:02:53;6.00;;;4.30;;
77838;SDS011;67034;43.226;27.932;2023-06-14T11:11:31;9.98;;;4.13;;
77838;SDS011;67034;43.226;27.932;2023-06-14T11:14:02;5.47;;;3.60;;
77838;SDS011;67034;43.226;27.932;2023-06-14T11:16:28;9.35;;;4.80;;
77838;SDS011;67034;43.226;27.932;2023-06-14T11:18:54;11.38;;;5.22;;
77838;SDS011;67034;43.226;27.932;2023-06-14T11:21:20;11.80;;;7.60;;
77838;SDS011;67034;43.226;27.932;2023-06-14T11:23:49;7.57;;;4.90;;
77838;SDS011;67034;43.226;27.932;2023-06-14T11:26:16;7.90;;;5.20;;
77838;SDS011;67034;43.226;27.932;2023-06-14T11:28:49;6.93;;;4.78;;
77838;SDS011;67034;43.226;27.932;2023-06-14T11:31:22;6.10;;;4.32;;
77838;SDS011;67034;43.226;27.932;2023-06-14T11:33:49;11.73;;;4.38;;
77838;SDS011;67034;43.226;27.932;2023-06-14T11:36:15;6.85;;;4.63;;
77838;SDS011;67034;43.226;27.932;2023-06-14T11:38:41;8.32;;;4.63;;
77838;SDS011;67034;43.226;27.932;2023-06-14T11:41:06;8.90;;;4.68;;
77838;SDS011;67034;43.226;27.932;2023-06-14T11:43:32;6.20;;;4.10;;
77838;SDS011;67034;43.226;27.932;2023-06-14T11:46:00;8.13;;;5.30;;
77838;SDS011;67034;43.226;27.932;2023-06-14T11:48:36;12.48;;;5.72;;
77838;SDS011;67034;43.226;27.932;2023-06-14T11:51:03;8.80;;;4.72;;
77838;SDS011;67034;43.226;27.932;2023-06-14T11:53:28;11.70;;;4.60;;
77838;SDS011;67034;43.226;27.932;2023-06-14T11:55:54;12.38;;;5.63;;
77838;SDS011;67034;43.226;27.932;2023-06-14T11:58:20;12.05;;;4.70;;
77838;SDS011;67034;43.226;27.932;2023-06-14T12:00:48;8.82;;;4.47;;
77838;SDS011;67034;43.226;27.932;2023-06-14T12:03:14;4.90;;;3.80;;
77838;SDS011;67034;43.226;27.932;2023-06-14T12:05:41;4.40;;;3.90;;
77838;SDS011;67034;43.226;27.932;2023-06-14T12:08:08;8.07;;;5.03;;
77838;SDS011;67034;43.226;27.932;2023-06-14T12:10:41;10.35;;;5.53;;
77838;SDS011;67034;43.226;27.932;2023-06-14T12:13:10;8.15;;;4.68;;
77838;SDS011;67034;43.226;27.932;2023-06-14T12:15:36;15.15;;;5.63;;
77838;SDS011;67034;43.226;27.932;2023-06-14T12:18:04;9.23;;;6.13;;
77838;SDS011;67034;43.226;27.932;2023-06-14T12:20:32;13.18;;;8.02;;
77838;SDS011;67034;43.226;27.932;2023-06-14T12:22:59;7.80;;;5.90;;
77838;SDS011;67034;43.226;27.932;2023-06-14T12:25:27;7.63;;;6.10;;
77838;SDS011;67034;43.226;27.932;2023-06-14T12:27:53;8.73;;;5.88;;
77838;SDS011;67034;43.226;27.932;2023-06-14T12:30:20;13.90;;;6.13;;
77838;SDS011;67034;43.226;27.932;2023-06-14T12:32:46;11.27;;;7.20;;
77838;SDS011;67034;43.226;27.932;2023-06-14T12:35:12;12.10;;;7.57;;
77838;SDS011;67034;43.226;27.932;2023-06-14T12:37:37;17.10;;;6.53;;
77838;SDS011;67034;43.226;27.932;2023-06-14T12:40:05;13.48;;;6.75;;
77838;SDS011;67034;43.226;27.932;2023-06-14T12:42:33;10.45;;;6.50;;
77838;SDS011;67034;43.226;27.932;2023-06-14T12:45:01;13.73;;;6.50;;
77838;SDS011;67034;43.226;27.932;2023-06-14T12:47:27;11.95;;;6.00;;
77838;SDS011;67034;43.226;27.932;2023-06-14T12:49:53;10.82;;;6.32;;
77838;SDS011;67034;43.226;27.932;2023-06-14T12:52:19;9.52;;;6.22;;
77838;SDS011;67034;43.226;27.932;2023-06-14T12:54:45;10.02;;;6.68;;
77838;SDS011;67034;43.226;27.932;2023-06-14T12:57:12;9.82;;;6.05;;
77838;SDS011;67034;43.226;27.932;2023-06-14T12:59:38;9.60;;;6.88;;
77838;SDS011;67034;43.226;27.932;2023-06-14T13:02:11;12.13;;;7.00;;
77838;SDS011;67034;43.226;27.932;2023-06-14T13:04:40;10.63;;;6.93;;
77838;SDS011;67034;43.226;27.932;2023-06-14T13:07:06;18.92;;;7.50;;
77838;SDS011;67034;43.226;27.932;2023-06-14T13:09:32;7.40;;;6.35;;
77838;SDS011;67034;43.226;27.932;2023-06-14T13:11:58;7.22;;;5.32;;
77838;SDS011;67034;43.226;27.932;2023-06-14T13:14:25;9.48;;;6.95;;
77838;SDS011;67034;43.226;27.932;2023-06-14T13:16:51;10.07;;;7.05;;
77838;SDS011;67034;43.226;27.932;2023-06-14T13:19:16;12.65;;;7.60;;
77838;SDS011;67034;43.226;27.932;2023-06-14T13:21:42;13.50;;;7.97;;
77838;SDS011;67034;43.226;27.932;2023-06-14T13:24:08;11.15;;;5.38;;
77838;SDS011;67034;43.226;27.932;2023-06-14T13:26:34;12.43;;;6.35;;
77838;SDS011;67034;43.226;27.932;2023-06-14T13:29:01;13.00;;;7.32;;
77838;SDS011;67034;43.226;27.932;2023-06-14T13:31:28;15.38;;;7.35;;
77838;SDS011;67034;43.226;27.932;2023-06-14T13:33:54;13.10;;;7.45;;
77838;SDS011;67034;43.226;27.932;2023-06-14T13:36:20;13.98;;;5.93;;
77838;SDS011;67034;43.226;27.932;2023-06-14T13:38:46;10.82;;;5.93;;
77838;SDS011;67034;43.226;27.932;2023-06-14T13:41:12;11.35;;;7.38;;
77838;SDS011;67034;43.226;27.932;2023-06-14T13:43:37;9.88;;;7.65;;
77838;SDS011;67034;43.226;27.932;2023-06-14T13:46:03;8.18;;;7.38;;
77838;SDS011;67034;43.226;27.932;2023-06-14T13:48:31;11.27;;;8.00;;
77838;SDS011;67034;43.226;27.932;2023-06-14T13:50:59;8.20;;;7.32;;
77838;SDS011;67034;43.226;27.932;2023-06-14T13:53:25;11.25;;;7.60;;
77838;SDS011;67034;43.226;27.932;2023-06-14T13:55:50;21.23;;;8.00;;
77838;SDS011;67034;43.226;27.932;2023-06-14T13:58:17;10.02;;;6.75;;
77838;SDS011;67034;43.226;27.932;2023-06-14T14:00:43;8.88;;;6.97;;
77838;SDS011;67034;43.226;27.932;2023-06-14T14:03:09;16.35;;;6.75;;
77838;SDS011;67034;43.226;27.932;2023-06-14T14:05:36;13.52;;;6.72;;
77838;SDS011;67034;43.226;27.932;2023-06-14T14:08:02;12.52;;;6.63;;
77838;SDS011;67034;43.226;27.932;2023-06-14T14:10:29;10.43;;;6.18;;
77838;SDS011;67034;43.226;27.932;2023-06-14T14:12:55;8.48;;;6.05;;
77838;SDS011;67034;43.226;27.932;2023-06-14T14:15:21;9.90;;;7.40;;
77838;SDS011;67034;43.226;27.932;2023-06-14T14:17:47;10.65;;;6.45;;
77838;SDS011;67034;43.226;27.932;2023-06-14T14:20:13;11.10;;;7.53;;
77838;SDS011;67034;43.226;27.932;2023-06-14T14:22:42;9.70;;;7.05;;
77838;SDS011;67034;43.226;27.932;2023-06-14T14:25:08;9.32;;;5.72;;
77838;SDS011;67034;43.226;27.932;2023-06-14T14:27:34;9.80;;;7.18;;
77838;SDS011;67034;43.226;27.932;2023-06-14T14:30:01;12.52;;;7.05;;
77838;SDS011;67034;43.226;27.932;2023-06-14T14:32:27;9.73;;;8.25;;
77838;SDS011;67034;43.226;27.932;2023-06-14T14:34:53;10.68;;;9.05;;
77838;SDS011;67034;43.226;27.932;2023-06-14T14:37:19;10.90;;;7.43;;
77838;SDS011;67034;43.226;27.932;2023-06-14T14:39:46;9.88;;;7.18;;
77838;SDS011;67034;43.226;27.932;2023-06-14T14:42:11;14.40;;;7.90;;
77838;SDS011;67034;43.226;27.932;2023-06-14T14:44:37;11.77;;;7.97;;